sensor_id;sensor_type;location;lat;lon;timestamp;pressure;altitude;pressure_sealevel;temperature;humidity
50394;BME280;36308;46.312;25.288;2023-03-26T00:01:53;95258.25;;;9.57;71.43
50394;BME280;36308;46.312;25.288;2023-03-26T00:04:19;95254.25;;;9.55;71.30
50394;BME280;36308;46.312;25.288;2023-03-26T00:06:46;95250.47;;;9.56;71.58
50394;BME280;36308;46.312;25.288;2023-03-26T00:09:14;95255.03;;;9.55;70.78
50394;BME280;36308;46.312;25.288;2023-03-26T00:11:41;95253.97;;;9.56;71.20
50394;BME280;36308;46.312;25.288;2023-03-26T00:14:08;95245.09;;;9.56;71.71
50394;BME280;36308;46.312;25.288;2023-03-26T00:16:38;95251.28;;;9.56;70.95
50394;BME280;36308;46.312;25.288;2023-03-26T00:19:06;95240.53;;;9.56;71.34
50394;BME280;36308;46.312;25.288;2023-03-26T00:21:33;95239.47;;;9.57;71.60
50394;BME280;36308;46.312;25.288;2023-03-26T00:24:01;95236.78;;;9.57;71.46
50394;BME280;36308;46.312;25.288;2023-03-26T00:26:29;95242.69;;;9.59;71.22
50394;BME280;36308;46.312;25.288;2023-03-26T00:28:56;95234.66;;;9.59;71.41
50394;BME280;36308;46.312;25.288;2023-03-26T00:31:21;95237.59;;;9.58;71.78
50394;BME280;36308;46.312;25.288;2023-03-26T00:33:49;95240.81;;;9.60;71.27
50394;BME280;36308;46.312;25.288;2023-03-26T00:36:18;95224.97;;;9.58;71.35
50394;BME280;36308;46.312;25.288;2023-03-26T00:38:45;95231.97;;;9.59;71.77
50394;BME280;36308;46.312;25.288;2023-03-26T00:41:14;95229.28;;;9.59;71.79
50394;BME280;36308;46.312;25.288;2023-03-26T00:43:49;95230.06;;;9.60;71.76
50394;BME280;36308;46.312;25.288;2023-03-26T00:46:16;95234.66;;;9.59;71.17
50394;BME280;36308;46.312;25.288;2023-03-26T00:48:42;95233.31;;;9.57;71.68
50394;BME280;36308;46.312;25.288;2023-03-26T00:51:11;95240.28;;;9.58;71.32
50394;BME280;36308;46.312;25.288;2023-03-26T00:53:39;95240.00;;;9.59;71.92
50394;BME280;36308;46.312;25.288;2023-03-26T00:56:05;95231.97;;;9.59;71.73
50394;BME280;36308;46.312;25.288;2023-03-26T00:58:31;95236.78;;;9.57;71.53
50394;BME280;36308;46.312;25.288;2023-03-26T01:01:01;95245.38;;;9.59;71.67
50394;BME280;36308;46.312;25.288;2023-03-26T01:03:30;95245.38;;;9.59;71.44
50394;BME280;36308;46.312;25.288;2023-03-26T01:06:05;95243.75;;;9.58;71.81
50394;BME280;36308;46.312;25.288;2023-03-26T01:08:48;95246.72;;;9.57;71.85
50394;BME280;36308;46.312;25.288;2023-03-26T01:11:21;95252.38;;;9.55;71.39
50394;BME280;36308;46.312;25.288;2023-03-26T01:13:52;95259.88;;;9.53;71.61
50394;BME280;36308;46.312;25.288;2023-03-26T01:16:40;95265.25;;;9.53;71.82
50394;BME280;36308;46.312;25.288;2023-03-26T01:19:10;95251.28;;;9.51;71.48
50394;BME280;36308;46.312;25.288;2023-03-26T01:21:38;95246.44;;;9.48;71.25
50394;BME280;36308;46.312;25.288;2023-03-26T01:24:05;95245.91;;;9.46;71.10
50394;BME280;36308;46.312;25.288;2023-03-26T01:29:43;95250.22;;;9.42;70.41
50394;BME280;36308;46.312;25.288;2023-03-26T01:40:20;95263.63;;;9.37;70.23
50394;BME280;36308;46.312;25.288;2023-03-26T01:45:29;95266.31;;;9.31;70.30
50394;BME280;36308;46.312;25.288;2023-03-26T01:47:56;95261.47;;;9.23;69.30
50394;BME280;36308;46.312;25.288;2023-03-26T01:50:22;95271.66;;;9.21;69.80
50394;BME280;36308;46.312;25.288;2023-03-26T01:52:48;95266.84;;;9.18;69.03
50394;BME280;36308;46.312;25.288;2023-03-26T01:55:14;95269.78;;;9.17;69.36
50394;BME280;36308;46.312;25.288;2023-03-26T02:03:15;95297.97;;;9.09;68.18
50394;BME280;36308;46.312;25.288;2023-03-26T02:08:49;95299.00;;;8.98;67.18
50394;BME280;36308;46.312;25.288;2023-03-26T02:11:16;95302.47;;;8.93;66.87
50394;BME280;36308;46.312;25.288;2023-03-26T02:13:44;95313.16;;;8.88;66.74
50394;BME280;36308;46.312;25.288;2023-03-26T02:16:12;95305.94;;;8.83;66.79
50394;BME280;36308;46.312;25.288;2023-03-26T02:18:42;95311.00;;;8.80;66.65
50394;BME280;36308;46.312;25.288;2023-03-26T02:21:11;95312.59;;;8.76;66.91
50394;BME280;36308;46.312;25.288;2023-03-26T02:23:41;95309.13;;;8.70;66.95
50394;BME280;36308;46.312;25.288;2023-03-26T02:26:10;95314.19;;;8.66;66.76
50394;BME280;36308;46.312;25.288;2023-03-26T02:28:36;95316.03;;;8.61;66.92
50394;BME280;36308;46.312;25.288;2023-03-26T02:31:03;95327.84;;;8.60;66.69
50394;BME280;36308;46.312;25.288;2023-03-26T02:33:29;95332.66;;;8.58;66.54
50394;BME280;36308;46.312;25.288;2023-03-26T02:35:56;95318.66;;;8.45;66.78
50394;BME280;36308;46.312;25.288;2023-03-26T02:38:35;95331.03;;;8.52;67.70
50394;BME280;36308;46.312;25.288;2023-03-26T02:41:01;95330.97;;;8.46;67.19
50394;BME280;36308;46.312;25.288;2023-03-26T02:43:27;95340.38;;;8.49;67.43
50394;BME280;36308;46.312;25.288;2023-03-26T02:45:52;95338.47;;;8.44;67.49
50394;BME280;36308;46.312;25.288;2023-03-26T02:48:18;95335.78;;;8.44;67.95
50394;BME280;36308;46.312;25.288;2023-03-26T02:50:45;95339.00;;;8.41;67.68
50394;BME280;36308;46.312;25.288;2023-03-26T02:53:10;95335.16;;;8.32;67.31
50394;BME280;36308;46.312;25.288;2023-03-26T02:55:37;95338.38;;;8.34;67.25
50394;BME280;36308;46.312;25.288;2023-03-26T02:58:03;95343.19;;;8.32;67.63
50394;BME280;36308;46.312;25.288;2023-03-26T03:00:28;95349.09;;;8.34;67.75
50394;BME280;36308;46.312;25.288;2023-03-26T03:02:54;95347.50;;;8.33;67.44
50394;BME280;36308;46.312;25.288;2023-03-26T03:05:22;95336.22;;;8.26;67.40
50394;BME280;36308;46.312;25.288;2023-03-26T03:07:51;95343.72;;;8.29;67.63
50394;BME280;36308;46.312;25.288;2023-03-26T03:10:23;95336.00;;;8.33;67.92
50394;BME280;36308;46.312;25.288;2023-03-26T03:12:50;95346.72;;;8.33;67.50
50394;BME280;36308;46.312;25.288;2023-03-26T03:15:15;95346.16;;;8.30;67.31
50394;BME280;36308;46.312;25.288;2023-03-26T03:17:41;95348.31;;;8.34;67.13
50394;BME280;36308;46.312;25.288;2023-03-26T03:20:07;95343.75;;;8.34;66.92
50394;BME280;36308;46.312;25.288;2023-03-26T03:22:36;95344.56;;;8.35;66.96
50394;BME280;36308;46.312;25.288;2023-03-26T03:25:02;95348.84;;;8.36;67.20
50394;BME280;36308;46.312;25.288;2023-03-26T03:27:28;95335.44;;;8.30;67.17
50394;BME280;36308;46.312;25.288;2023-03-26T03:29:53;95345.38;;;8.35;66.95
50394;BME280;36308;46.312;25.288;2023-03-26T03:32:21;95355.00;;;8.36;66.99
50394;BME280;36308;46.312;25.288;2023-03-26T03:34:47;95350.72;;;8.35;67.52
50394;BME280;36308;46.312;25.288;2023-03-26T03:37:16;95352.06;;;8.38;67.19
50394;BME280;36308;46.312;25.288;2023-03-26T03:39:42;95357.97;;;8.40;67.18
50394;BME280;36308;46.312;25.288;2023-03-26T03:42:07;95365.78;;;8.41;67.08
50394;BME280;36308;46.312;25.288;2023-03-26T03:44:33;95365.00;;;8.41;67.43
50394;BME280;36308;46.312;25.288;2023-03-26T03:46:58;95367.38;;;8.42;67.48
50394;BME280;36308;46.312;25.288;2023-03-26T03:49:24;95357.19;;;8.39;67.64
50394;BME280;36308;46.312;25.288;2023-03-26T03:51:50;95360.44;;;8.41;67.75
50394;BME280;36308;46.312;25.288;2023-03-26T03:54:15;95358.78;;;8.40;68.11
50394;BME280;36308;46.312;25.288;2023-03-26T03:56:41;95359.84;;;8.39;68.26
50394;BME280;36308;46.312;25.288;2023-03-26T03:59:06;95362.78;;;8.38;67.95
50394;BME280;36308;46.312;25.288;2023-03-26T04:01:33;95365.16;;;8.34;67.46
50394;BME280;36308;46.312;25.288;2023-03-26T04:03:59;95374.84;;;8.35;67.71
50394;BME280;36308;46.312;25.288;2023-03-26T04:06:24;95376.66;;;8.29;67.96
50394;BME280;36308;46.312;25.288;2023-03-26T04:08:50;95385.00;;;8.33;67.93
50394;BME280;36308;46.312;25.288;2023-03-26T04:11:16;95382.31;;;8.28;67.51
50394;BME280;36308;46.312;25.288;2023-03-26T04:13:43;95391.38;;;8.27;67.36
50394;BME280;36308;46.312;25.288;2023-03-26T04:16:09;95386.56;;;8.24;67.38
50394;BME280;36308;46.312;25.288;2023-03-26T04:18:35;95383.34;;;8.22;67.77
50394;BME280;36308;46.312;25.288;2023-03-26T04:21:02;95385.47;;;8.20;67.13
50394;BME280;36308;46.312;25.288;2023-03-26T04:23:30;95383.53;;;8.15;67.84
50394;BME280;36308;46.312;25.288;2023-03-26T04:25:57;95371.47;;;8.07;67.65
50394;BME280;36308;46.312;25.288;2023-03-26T04:28:32;95386.50;;;8.14;67.48
50394;BME280;36308;46.312;25.288;2023-03-26T04:31:00;95368.25;;;8.05;66.89
50394;BME280;36308;46.312;25.288;2023-03-26T04:33:32;95381.63;;;8.10;67.18
50394;BME280;36308;46.312;25.288;2023-03-26T04:35:59;95387.00;;;8.10;66.86
50394;BME280;36308;46.312;25.288;2023-03-26T04:38:30;95387.00;;;8.10;67.27
50394;BME280;36308;46.312;25.288;2023-03-26T04:40:59;95387.53;;;8.07;66.97
50394;BME280;36308;46.312;25.288;2023-03-26T04:43:25;95374.88;;;8.03;67.13
50394;BME280;36308;46.312;25.288;2023-03-26T04:45:51;95376.78;;;8.02;67.57
50394;BME280;36308;46.312;25.288;2023-03-26T04:48:17;95378.41;;;8.03;67.56
50394;BME280;36308;46.312;25.288;2023-03-26T04:50:45;95380.78;;;8.00;67.77
50394;BME280;36308;46.312;25.288;2023-03-26T04:53:16;95381.28;;;7.97;67.50
50394;BME280;36308;46.312;25.288;2023-03-26T04:56:02;95385.28;;;7.94;67.75
50394;BME280;36308;46.312;25.288;2023-03-26T04:58:31;95390.06;;;7.92;68.18
50394;BME280;36308;46.312;25.288;2023-03-26T05:00:58;95394.63;;;7.92;68.04
50394;BME280;36308;46.312;25.288;2023-03-26T05:03:29;95386.28;;;7.88;68.11
50394;BME280;36308;46.312;25.288;2023-03-26T05:05:57;95371.25;;;7.77;68.13
50394;BME280;36308;46.312;25.288;2023-03-26T05:08:22;95395.63;;;7.80;68.48
50394;BME280;36308;46.312;25.288;2023-03-26T05:10:48;95395.88;;;7.79;68.53
50394;BME280;36308;46.312;25.288;2023-03-26T05:13:13;95400.13;;;7.75;68.67
50394;BME280;36308;46.312;25.288;2023-03-26T05:15:39;95403.84;;;7.74;68.81
50394;BME280;36308;46.312;25.288;2023-03-26T05:18:05;95407.03;;;7.71;69.08
50394;BME280;36308;46.312;25.288;2023-03-26T05:20:32;95404.06;;;7.67;68.99
50394;BME280;36308;46.312;25.288;2023-03-26T05:22:58;95407.81;;;7.66;68.98
50394;BME280;36308;46.312;25.288;2023-03-26T05:25:23;95412.34;;;7.65;69.20
50394;BME280;36308;46.312;25.288;2023-03-26T05:27:49;95407.50;;;7.62;69.20
50394;BME280;36308;46.312;25.288;2023-03-26T05:30:18;95404.53;;;7.59;69.44
50394;BME280;36308;46.312;25.288;2023-03-26T05:32:46;95404.28;;;7.60;69.31
50394;BME280;36308;46.312;25.288;2023-03-26T05:35:13;95416.56;;;7.61;69.49
50394;BME280;36308;46.312;25.288;2023-03-26T05:37:42;95406.94;;;7.60;69.46
50394;BME280;36308;46.312;25.288;2023-03-26T05:40:09;95400.50;;;7.56;69.70
50394;BME280;36308;46.312;25.288;2023-03-26T05:42:36;95409.63;;;7.60;69.49
50394;BME280;36308;46.312;25.288;2023-03-26T05:45:02;95414.41;;;7.58;69.31
50394;BME280;36308;46.312;25.288;2023-03-26T05:47:27;95410.94;;;7.58;69.67
50394;BME280;36308;46.312;25.288;2023-03-26T05:49:53;95417.41;;;7.62;69.91
50394;BME280;36308;46.312;25.288;2023-03-26T05:52:18;95413.41;;;7.64;70.23
50394;BME280;36308;46.312;25.288;2023-03-26T05:54:44;95411.22;;;7.61;70.23
50394;BME280;36308;46.312;25.288;2023-03-26T05:57:09;95418.28;;;7.73;70.26
50394;BME280;36308;46.312;25.288;2023-03-26T05:59:35;95413.50;;;7.75;70.59
50394;BME280;36308;46.312;25.288;2023-03-26T06:02:00;95415.66;;;7.78;70.78
50394;BME280;36308;46.312;25.288;2023-03-26T06:04:26;95406.06;;;7.82;70.72
50394;BME280;36308;46.312;25.288;2023-03-26T06:06:52;95407.16;;;7.86;70.02
50394;BME280;36308;46.312;25.288;2023-03-26T06:09:18;95411.19;;;7.88;69.98
50394;BME280;36308;46.312;25.288;2023-03-26T06:11:44;95409.88;;;7.91;70.20
50394;BME280;36308;46.312;25.288;2023-03-26T06:14:09;95412.59;;;7.96;70.35
50394;BME280;36308;46.312;25.288;2023-03-26T06:16:35;95405.91;;;7.99;69.88
50394;BME280;36308;46.312;25.288;2023-03-26T06:19:00;95419.66;;;8.07;70.20
50394;BME280;36308;46.312;25.288;2023-03-26T06:21:27;95415.41;;;8.12;70.13
50394;BME280;36308;46.312;25.288;2023-03-26T06:23:53;95419.19;;;8.16;69.61
50394;BME280;36308;46.312;25.288;2023-03-26T06:26:19;95424.06;;;8.24;69.70
50394;BME280;36308;46.312;25.288;2023-03-26T06:28:45;95423.53;;;8.27;69.51
50394;BME280;36308;46.312;25.288;2023-03-26T06:31:11;95427.31;;;8.31;69.67
50394;BME280;36308;46.312;25.288;2023-03-26T06:33:37;95431.09;;;8.35;69.69
50394;BME280;36308;46.312;25.288;2023-03-26T06:36:03;95424.16;;;8.39;69.13
50394;BME280;36308;46.312;25.288;2023-03-26T06:38:28;95421.47;;;8.39;69.04
50394;BME280;36308;46.312;25.288;2023-03-26T06:41:00;95417.00;;;8.50;69.15
50394;BME280;36308;46.312;25.288;2023-03-26T06:43:26;95426.97;;;8.60;68.59
50394;BME280;36308;46.312;25.288;2023-03-26T06:45:51;95430.75;;;8.64;68.23
50394;BME280;36308;46.312;25.288;2023-03-26T06:48:17;95423.25;;;8.66;67.74
50394;BME280;36308;46.312;25.288;2023-03-26T06:50:43;95428.94;;;8.75;68.32
50394;BME280;36308;46.312;25.288;2023-03-26T06:53:10;95430.03;;;8.79;67.99
50394;BME280;36308;46.312;25.288;2023-03-26T06:55:35;95422.81;;;8.84;67.92
50394;BME280;36308;46.312;25.288;2023-03-26T06:58:01;95438.91;;;8.89;67.65
50394;BME280;36308;46.312;25.288;2023-03-26T07:00:26;95433.03;;;8.98;67.83
50394;BME280;36308;46.312;25.288;2023-03-26T07:02:52;95436.81;;;9.02;67.90
50394;BME280;36308;46.312;25.288;2023-03-26T07:05:17;95429.88;;;9.06;67.90
50394;BME280;36308;46.312;25.288;2023-03-26T07:07:43;95442.47;;;9.10;67.46
50394;BME280;36308;46.312;25.288;2023-03-26T07:10:09;95432.03;;;9.14;67.46
50394;BME280;36308;46.312;25.288;2023-03-26T07:12:34;95434.22;;;9.22;66.78
50394;BME280;36308;46.312;25.288;2023-03-26T07:15:02;95424.81;;;9.25;66.49
50394;BME280;36308;46.312;25.288;2023-03-26T07:17:28;95434.25;;;9.33;66.66
50394;BME280;36308;46.312;25.288;2023-03-26T07:19:54;95433.19;;;9.39;66.91
50394;BME280;36308;46.312;25.288;2023-03-26T07:22:23;95442.88;;;9.45;66.23
50394;BME280;36308;46.312;25.288;2023-03-26T07:24:50;95436.44;;;9.51;66.38
50394;BME280;36308;46.312;25.288;2023-03-26T07:30:16;95418.72;;;9.60;64.69
50394;BME280;36308;46.312;25.288;2023-03-26T07:32:52;95422.25;;;9.66;65.03
50394;BME280;36308;46.312;25.288;2023-03-26T07:35:30;95413.38;;;9.70;64.76
50394;BME280;36308;46.312;25.288;2023-03-26T07:46:10;95414.47;;;10.16;64.47
50394;BME280;36308;46.312;25.288;2023-03-26T07:48:42;95412.59;;;10.21;64.00
50394;BME280;36308;46.312;25.288;2023-03-26T07:51:09;95417.69;;;10.28;63.10
50394;BME280;36308;46.312;25.288;2023-03-26T07:53:35;95423.06;;;10.28;63.63
50394;BME280;36308;46.312;25.288;2023-03-26T07:56:16;95423.34;;;10.31;62.78
50394;BME280;36308;46.312;25.288;2023-03-26T08:07:14;95417.69;;;10.43;62.35
50394;BME280;36308;46.312;25.288;2023-03-26T08:17:55;95404.19;;;10.69;61.17
50394;BME280;36308;46.312;25.288;2023-03-26T08:22:59;95393.94;;;10.81;60.35
50394;BME280;36308;46.312;25.288;2023-03-26T08:25:30;95395.25;;;10.89;59.91
50394;BME280;36308;46.312;25.288;2023-03-26T08:30:49;95388.72;;;11.05;59.58
50394;BME280;36308;46.312;25.288;2023-03-26T08:33:19;95383.56;;;11.19;59.56
50394;BME280;36308;46.312;25.288;2023-03-26T08:35:45;95386.97;;;11.35;60.00
50394;BME280;36308;46.312;25.288;2023-03-26T08:38:16;95388.19;;;11.53;59.27
50394;BME280;36308;46.312;25.288;2023-03-26T08:49:28;95386.09;;;12.48;56.06
50394;BME280;36308;46.312;25.288;2023-03-26T09:09:22;95396.19;;;13.71;51.44
50394;BME280;36308;46.312;25.288;2023-03-26T09:34:55;95420.78;;;15.15;46.45
50394;BME280;36308;46.312;25.288;2023-03-26T09:40:19;95426.22;;;15.15;46.24
50394;BME280;36308;46.312;25.288;2023-03-26T09:48:37;95428.38;;;14.85;46.46
50394;BME280;36308;46.312;25.288;2023-03-26T09:56:54;95421.41;;;14.51;47.79
50394;BME280;36308;46.312;25.288;2023-03-26T10:00:46;95440.28;;;14.38;47.69
50394;BME280;36308;46.312;25.288;2023-03-26T10:05:51;95439.47;;;14.04;48.32
50394;BME280;36308;46.312;25.288;2023-03-26T10:11:00;95434.03;;;13.90;49.28
50394;BME280;36308;46.312;25.288;2023-03-26T10:49:59;95400.97;;;15.56;45.88
50394;BME280;36308;46.312;25.288;2023-03-26T10:52:36;95397.03;;;15.76;45.77
50394;BME280;36308;46.312;25.288;2023-03-26T10:55:14;95399.56;;;15.95;45.06
50394;BME280;36308;46.312;25.288;2023-03-26T10:57:48;95397.91;;;16.08;44.36
50394;BME280;36308;46.312;25.288;2023-03-26T11:00:24;95400.56;;;16.22;44.42
50394;BME280;36308;46.312;25.288;2023-03-26T11:03:09;95398.59;;;16.36;44.62
50394;BME280;36308;46.312;25.288;2023-03-26T11:11:46;95399.53;;;16.63;43.33
50394;BME280;36308;46.312;25.288;2023-03-26T11:19:51;95401.91;;;16.64;42.05
50394;BME280;36308;46.312;25.288;2023-03-26T11:33:31;95384.78;;;16.24;39.83
50394;BME280;36308;46.312;25.288;2023-03-26T11:36:05;95386.03;;;16.17;39.84
50394;BME280;36308;46.312;25.288;2023-03-26T11:38:35;95386.66;;;16.14;39.80
50394;BME280;36308;46.312;25.288;2023-03-26T11:41:03;95383.75;;;16.11;39.22
50394;BME280;36308;46.312;25.288;2023-03-26T11:43:35;95382.06;;;16.01;39.29
50394;BME280;36308;46.312;25.288;2023-03-26T11:46:03;95374.00;;;15.87;38.50
50394;BME280;36308;46.312;25.288;2023-03-26T11:48:43;95374.56;;;15.75;38.90
50394;BME280;36308;46.312;25.288;2023-03-26T11:51:14;95377.34;;;15.70;39.48
50394;BME280;36308;46.312;25.288;2023-03-26T11:53:42;95352.91;;;15.48;39.53
50394;BME280;36308;46.312;25.288;2023-03-26T12:01:47;95376.97;;;15.63;39.87
50394;BME280;36308;46.312;25.288;2023-03-26T12:04:18;95367.31;;;15.71;39.90
50394;BME280;36308;46.312;25.288;2023-03-26T12:06:53;95358.59;;;15.74;39.94
50394;BME280;36308;46.312;25.288;2023-03-26T12:09:21;95359.50;;;15.69;39.21
50394;BME280;36308;46.312;25.288;2023-03-26T12:11:48;95358.91;;;15.72;38.61
50394;BME280;36308;46.312;25.288;2023-03-26T12:14:18;95372.34;;;15.78;37.71
50394;BME280;36308;46.312;25.288;2023-03-26T12:17:11;95356.25;;;15.81;37.82
50394;BME280;36308;46.312;25.288;2023-03-26T12:19:40;95365.44;;;15.94;38.19
50394;BME280;36308;46.312;25.288;2023-03-26T12:22:35;95354.72;;;16.11;37.89
50394;BME280;36308;46.312;25.288;2023-03-26T12:25:23;95355.63;;;16.29;37.91
50394;BME280;36308;46.312;25.288;2023-03-26T12:28:00;95356.16;;;16.40;38.09
50394;BME280;36308;46.312;25.288;2023-03-26T12:30:34;95340.06;;;16.44;37.81
50394;BME280;36308;46.312;25.288;2023-03-26T12:33:22;95346.16;;;16.49;37.76
50394;BME280;36308;46.312;25.288;2023-03-26T12:35:51;95341.69;;;16.53;37.48
50394;BME280;36308;46.312;25.288;2023-03-26T12:38:32;95346.25;;;16.67;36.65
50394;BME280;36308;46.312;25.288;2023-03-26T12:43:47;95352.66;;;16.71;35.30
50394;BME280;36308;46.312;25.288;2023-03-26T12:46:28;95352.75;;;16.66;35.55
50394;BME280;36308;46.312;25.288;2023-03-26T12:48:58;95348.28;;;16.61;35.28
50394;BME280;36308;46.312;25.288;2023-03-26T13:13:10;95315.50;;;16.49;35.30
50394;BME280;36308;46.312;25.288;2023-03-26T13:16:06;95310.34;;;16.39;34.44
50394;BME280;36308;46.312;25.288;2023-03-26T13:18:55;95322.06;;;16.48;34.43
50394;BME280;36308;46.312;25.288;2023-03-26T13:32:01;95311.25;;;16.65;34.47
50394;BME280;36308;46.312;25.288;2023-03-26T13:45:20;95303.94;;;16.74;34.39
50394;BME280;36308;46.312;25.288;2023-03-26T13:47:53;95293.75;;;16.80;34.47
50394;BME280;36308;46.312;25.288;2023-03-26T13:50:26;95293.47;;;16.90;34.47
50394;BME280;36308;46.312;25.288;2023-03-26T13:53:10;95292.41;;;17.00;34.63
50394;BME280;36308;46.312;25.288;2023-03-26T13:55:44;95290.34;;;17.06;33.98
50394;BME280;36308;46.312;25.288;2023-03-26T14:01:14;95279.97;;;17.16;33.71
50394;BME280;36308;46.312;25.288;2023-03-26T14:08:56;95268.13;;;17.30;33.51
50394;BME280;36308;46.312;25.288;2023-03-26T14:11:42;95266.69;;;17.32;33.42
50394;BME280;36308;46.312;25.288;2023-03-26T14:22:30;95278.03;;;17.17;32.02
50394;BME280;36308;46.312;25.288;2023-03-26T14:30:19;95275.88;;;16.79;33.18
50394;BME280;36308;46.312;25.288;2023-03-26T14:38:29;95273.09;;;16.70;32.49
50394;BME280;36308;46.312;25.288;2023-03-26T14:49:12;95262.88;;;16.59;33.23
50394;BME280;36308;46.312;25.288;2023-03-26T14:52:15;95254.75;;;16.59;33.58
50394;BME280;36308;46.312;25.288;2023-03-26T14:54:44;95243.88;;;16.59;33.49
50394;BME280;36308;46.312;25.288;2023-03-26T15:23:12;95250.75;;;16.25;33.91
50394;BME280;36308;46.312;25.288;2023-03-26T15:43:08;95240.25;;;15.69;34.78
50394;BME280;36308;46.312;25.288;2023-03-26T15:45:33;95231.25;;;15.60;34.89
50394;BME280;36308;46.312;25.288;2023-03-26T15:50:50;95237.56;;;15.47;35.15
50394;BME280;36308;46.312;25.288;2023-03-26T15:53:42;95236.69;;;15.38;34.94
50394;BME280;36308;46.312;25.288;2023-03-26T15:59:33;95238.19;;;15.21;35.79
50394;BME280;36308;46.312;25.288;2023-03-26T16:10:51;95252.50;;;14.85;36.10
50394;BME280;36308;46.312;25.288;2023-03-26T16:29:22;95252.22;;;14.18;37.66
50394;BME280;36308;46.312;25.288;2023-03-26T16:53:49;95233.97;;;13.30;39.76
50394;BME280;36308;46.312;25.288;2023-03-26T16:56:47;95236.28;;;13.18;40.02
50394;BME280;36308;46.312;25.288;2023-03-26T17:02:22;95236.97;;;12.90;40.66
50394;BME280;36308;46.312;25.288;2023-03-26T17:04:56;95242.31;;;12.77;40.76
50394;BME280;36308;46.312;25.288;2023-03-26T17:07:51;95245.19;;;12.61;40.92
50394;BME280;36308;46.312;25.288;2023-03-26T17:10:28;95248.84;;;12.51;41.24
50394;BME280;36308;46.312;25.288;2023-03-26T17:13:08;95242.53;;;12.37;41.27
50394;BME280;36308;46.312;25.288;2023-03-26T17:16:00;95241.34;;;12.24;42.06
50394;BME280;36308;46.312;25.288;2023-03-26T17:18:51;95250.09;;;12.11;41.78
50394;BME280;36308;46.312;25.288;2023-03-26T17:21:23;95247.50;;;12.01;42.38
50394;BME280;36308;46.312;25.288;2023-03-26T17:24:14;95251.41;;;11.84;42.38
50394;BME280;36308;46.312;25.288;2023-03-26T17:26:57;95257.75;;;11.69;42.73
50394;BME280;36308;46.312;25.288;2023-03-26T17:29:55;95263.81;;;11.56;43.08
50394;BME280;36308;46.312;25.288;2023-03-26T17:32:50;95260.19;;;11.37;43.34
50394;BME280;36308;46.312;25.288;2023-03-26T17:35:34;95270.81;;;11.23;42.93
50394;BME280;36308;46.312;25.288;2023-03-26T17:38:00;95268.44;;;11.11;43.62
50394;BME280;36308;46.312;25.288;2023-03-26T17:46:33;95266.00;;;10.70;43.69
50394;BME280;36308;46.312;25.288;2023-03-26T17:51:43;95263.97;;;10.46;44.39
50394;BME280;36308;46.312;25.288;2023-03-26T17:56:53;95261.34;;;10.21;45.50
50394;BME280;36308;46.312;25.288;2023-03-26T17:59:22;95265.13;;;10.09;45.26
50394;BME280;36308;46.312;25.288;2023-03-26T18:01:58;95270.78;;;9.98;45.95
50394;BME280;36308;46.312;25.288;2023-03-26T18:04:39;95282.13;;;9.84;45.90
50394;BME280;36308;46.312;25.288;2023-03-26T18:10:23;95288.84;;;9.61;46.03
50394;BME280;36308;46.312;25.288;2023-03-26T18:18:53;95297.94;;;9.19;47.05
50394;BME280;36308;46.312;25.288;2023-03-26T18:21:32;95300.34;;;9.10;47.09
50394;BME280;36308;46.312;25.288;2023-03-26T18:24:00;95304.91;;;9.00;47.74
50394;BME280;36308;46.312;25.288;2023-03-26T18:27:14;95310.22;;;8.89;47.76
50394;BME280;36308;46.312;25.288;2023-03-26T18:29:24;95317.44;;;8.79;47.40
50394;BME280;36308;46.312;25.288;2023-03-26T18:34:23;95316.03;;;8.61;48.23
50394;BME280;36308;46.312;25.288;2023-03-26T18:37:08;95312.25;;;8.52;48.30
50394;BME280;36308;46.312;25.288;2023-03-26T18:39:36;95312.22;;;8.41;48.83
50394;BME280;36308;46.312;25.288;2023-03-26T18:42:03;95316.16;;;8.34;49.27
50394;BME280;36308;46.312;25.288;2023-03-26T18:44:32;95315.84;;;8.25;49.42
50394;BME280;36308;46.312;25.288;2023-03-26T18:47:04;95323.34;;;8.18;49.28
50394;BME280;36308;46.312;25.288;2023-03-26T18:49:30;95317.38;;;8.10;49.26
50394;BME280;36308;46.312;25.288;2023-03-26T18:51:56;95319.50;;;8.03;49.54
50394;BME280;36308;46.312;25.288;2023-03-26T18:54:22;95326.94;;;7.96;49.96
50394;BME280;36308;46.312;25.288;2023-03-26T18:56:49;95323.41;;;7.90;49.94
50394;BME280;36308;46.312;25.288;2023-03-26T19:01:46;95315.59;;;7.79;50.59
50394;BME280;36308;46.312;25.288;2023-03-26T19:04:14;95308.59;;;7.73;50.84
50394;BME280;36308;46.312;25.288;2023-03-26T19:06:41;95307.75;;;7.67;50.95
50394;BME280;36308;46.312;25.288;2023-03-26T19:09:08;95301.81;;;7.60;51.54
50394;BME280;36308;46.312;25.288;2023-03-26T19:11:38;95304.19;;;7.56;51.29
50394;BME280;36308;46.312;25.288;2023-03-26T19:14:18;95301.75;;;7.49;51.69
50394;BME280;36308;46.312;25.288;2023-03-26T19:16:49;95298.22;;;7.44;51.71
50394;BME280;36308;46.312;25.288;2023-03-26T19:19:21;95297.91;;;7.40;52.12
50394;BME280;36308;46.312;25.288;2023-03-26T19:21:50;95302.97;;;7.37;52.16
50394;BME280;36308;46.312;25.288;2023-03-26T19:24:18;95298.66;;;7.31;52.22
50394;BME280;36308;46.312;25.288;2023-03-26T19:26:44;95298.59;;;7.25;52.33
50394;BME280;36308;46.312;25.288;2023-03-26T19:29:12;95300.16;;;7.21;52.47
50394;BME280;36308;46.312;25.288;2023-03-26T19:31:39;95289.44;;;7.16;52.41
50394;BME280;36308;46.312;25.288;2023-03-26T19:37:20;95287.16;;;7.03;53.08
50394;BME280;36308;46.312;25.288;2023-03-26T19:39:50;95279.91;;;6.98;53.11
50394;BME280;36308;46.312;25.288;2023-03-26T19:42:22;95284.94;;;6.95;53.34
50394;BME280;36308;46.312;25.288;2023-03-26T19:44:50;95273.97;;;6.91;53.60
50394;BME280;36308;46.312;25.288;2023-03-26T19:47:24;95275.78;;;6.85;53.68
50394;BME280;36308;46.312;25.288;2023-03-26T19:49:56;95278.16;;;6.82;53.66
50394;BME280;36308;46.312;25.288;2023-03-26T19:52:27;95284.25;;;6.77;53.81
50394;BME280;36308;46.312;25.288;2023-03-26T19:57:35;95281.16;;;6.63;53.86